Terminal Aerodrome Forecast
Issued by NWS

Home | Current Version | Previous Version | Text Only | Print | Product List | Glossary On
Versions: 1 2 3 4 5 6 7 8 9 10 11 12 13
000
FTUS45 KREV 042341
TAFMMH
TAF
KMMH 042341Z 0500/0524 30010KT P6SM VCSH SCT080 BKN120
     FM050400 32007KT P6SM SCT070 BKN150
     FM052000 12008KT P6SM BKN090 BKN120=

USA.gov is the U.S. government's official web portal to all federal, state and local government web resources and services.